Chemung, New York
Current Conditions -  °F | °C
As of 2:53 AM on Sunday 26 Oct 2014 (Local Time) from KELM Reporting Station
Scattered Clouds Scattered Clouds  
Wind Chill: 44°   Ceiling: Unl
Heat Index: 48°   Visibility: 10mi
Dew Point: 42°   Wind: 9mph
Humidity: 80%   Direction: 270°W
Pressure: 29.65"   Gusts: NA
Location:  42.01°N, 76.62°W
Report Text: KELM 260653Z AUTO 27008KT 10SM SCT041 09/06 A2965 RMK AO2 SLP038 T00890056
Loading
Personal Weather Stations






























Interactive Weather Map
Tropical Storm Tracking
New forecast layout! Learn more

10-Day Weather Forecast

Advertisements
Track Severe Weather on mobile